createdAt,value
2019-02-27T17:17:43.375Z,98915.55
2019-02-27T17:20:19.812Z,98920.34
2019-02-27T17:22:48.098Z,98920.35
2019-02-27T17:25:16.399Z,98919.33
2019-02-27T17:27:49.912Z,98904.18
2019-02-27T17:30:24.417Z,98905.02
2019-02-27T17:32:52.821Z,98896.25
2019-02-27T17:35:23.606Z,98898.72
2019-02-27T17:37:51.106Z,98889.78
2019-02-27T17:40:19.375Z,98888.91
2019-02-27T17:42:52.983Z,98881.58
2019-02-27T17:45:23.262Z,98872.95
2019-02-27T17:47:51.535Z,98868.84
2019-02-27T17:50:19.801Z,98865.03
2019-02-27T17:52:48.970Z,98861.55
2019-02-27T17:55:18.975Z,98858.31
2019-02-27T17:57:47.338Z,98850.05
2019-02-27T18:00:34.159Z,98847.30
2019-02-27T18:03:05.015Z,98847.90
2019-02-27T18:05:32.467Z,98856.08
2019-02-27T18:08:00.730Z,98850.02
2019-02-27T18:10:29.024Z,98858.64
2019-02-27T18:12:58.879Z,98850.86
2019-02-27T18:15:27.288Z,98850.39
2019-02-27T18:17:55.588Z,98845.70
2019-02-27T18:20:25.584Z,98843.59
2019-02-27T18:22:53.879Z,98837.17
2019-02-27T18:25:22.228Z,98832.34
2019-02-27T18:27:50.491Z,98829.70
2019-02-27T18:30:21.147Z,98829.02
2019-02-27T18:32:49.751Z,98814.69
2019-02-27T18:35:19.007Z,98815.92
2019-02-27T18:37:47.299Z,98812.27
2019-02-27T18:40:16.805Z,98810.03
2019-02-27T18:42:45.090Z,98814.06
2019-02-27T18:45:16.176Z,98810.45
2019-02-27T18:47:44.603Z,98809.80
2019-02-27T18:50:15.398Z,98810.47
2019-02-27T18:52:43.642Z,98807.95
2019-02-27T18:55:13.771Z,98799.66
2019-02-27T18:57:46.056Z,98811.66
2019-02-27T19:00:25.552Z,98800.09
2019-02-27T19:03:05.685Z,98804.11
2019-02-27T19:05:33.977Z,98785.22
2019-02-27T19:08:02.262Z,98774.16
2019-02-27T19:10:30.544Z,98772.85
2019-02-27T19:13:00.032Z,98770.80
2019-02-27T19:15:28.950Z,98765.21
2019-02-27T19:17:57.237Z,98755.40
2019-02-27T19:20:29.076Z,98758.30
2019-02-27T19:22:57.337Z,98760.95
2019-02-27T19:25:25.695Z,98770.91
2019-02-27T19:27:53.949Z,98762.25
2019-02-27T19:30:22.223Z,98754.38
2019-02-27T19:32:50.484Z,98756.41
2019-02-27T19:35:21.659Z,98759.78
2019-02-27T19:37:48.815Z,98749.86
2019-02-27T19:40:21.304Z,98746.78
2019-02-27T19:42:51.411Z,98743.28
2019-02-27T19:45:19.688Z,98742.38
2019-02-27T19:47:49.663Z,98737.03
2019-02-27T19:50:18.101Z,98737.48
2019-02-27T19:52:46.387Z,98734.22
2019-02-27T19:55:14.665Z,98739.86
2019-02-27T19:57:43.588Z,98738.39
2019-02-27T20:00:20.937Z,98727.17
2019-02-27T20:02:49.236Z,98730.48
2019-02-27T20:05:19.138Z,98733.77
2019-02-27T20:07:47.563Z,98734.11
2019-02-27T20:10:16.984Z,98721.58
2019-02-27T20:12:47.795Z,98722.25
2019-02-27T20:15:19.513Z,98720.28
2019-02-27T20:17:48.069Z,98727.02
2019-02-27T20:20:18.193Z,98724.20
2019-02-27T20:22:46.456Z,98722.72
2019-02-27T20:25:17.970Z,98723.64
2019-02-27T20:27:46.331Z,98723.11
2019-02-27T20:30:18.087Z,98719.97
2019-02-27T20:32:47.091Z,98714.70
2019-02-27T20:35:17.303Z,98713.17
2019-02-27T20:37:45.350Z,98715.89
2019-02-27T20:40:15.472Z,98711.16
2019-02-27T20:42:43.872Z,98705.60
2019-02-27T20:45:16.372Z,98694.84
2019-02-27T20:47:44.673Z,98696.03
2019-02-27T20:50:33.997Z,98697.94
2019-02-27T20:52:51.686Z,98684.75
2019-02-27T20:55:19.963Z,98681.16
2019-02-27T20:57:48.238Z,98677.98
2019-02-27T21:00:16.932Z,98680.11
2019-02-27T21:02:45.205Z,98671.52
2019-02-27T21:05:16.705Z,98665.92
2019-02-27T21:07:44.987Z,98657.16
2019-02-27T21:10:20.857Z,98652.22
2019-02-27T21:12:53.978Z,98657.02
2019-02-27T21:15:19.149Z,98649.01
2019-02-27T21:17:47.406Z,98650.73
2019-02-27T21:20:16.682Z,98640.06
2019-02-27T21:22:45.039Z,98633.33
2019-02-27T21:25:14.936Z,98627.33
2019-02-27T21:27:43.933Z,98624.86
2019-02-27T21:30:17.730Z,98622.59
2019-02-27T21:32:44.505Z,98611.38
2019-02-27T21:35:12.836Z,98606.14
2019-02-27T21:37:44.620Z,98591.47
2019-02-27T21:40:13.385Z,98589.34
2019-02-27T21:42:41.645Z,98583.06
2019-02-27T21:45:15.588Z,98575.49
2019-02-27T21:47:43.853Z,98571.84
2019-02-27T21:50:14.941Z,98562.34
2019-02-27T21:52:43.201Z,98564.13
2019-02-27T21:55:13.763Z,98563.09
2019-02-27T21:57:41.620Z,98561.39
2019-02-27T22:00:16.168Z,98564.20
2019-02-27T22:02:44.436Z,98568.77
2019-02-27T22:05:18.490Z,98566.59
2019-02-27T22:07:42.722Z,98566.47
2019-02-27T22:10:19.678Z,98562.77
2019-02-27T22:12:46.215Z,98560.07
2019-02-27T22:15:22.887Z,98546.53
2019-02-27T22:17:50.620Z,98543.39
2019-02-27T22:20:18.910Z,98535.34
2019-02-27T22:22:47.183Z,98546.91
2019-02-27T22:25:15.441Z,98550.44
2019-02-27T22:27:45.881Z,98547.94
2019-02-27T22:30:18.559Z,98543.28
2019-02-27T22:32:48.151Z,98541.51
2019-02-27T22:35:16.833Z,98533.32
2019-02-27T22:37:45.089Z,98526.11
2019-02-27T22:40:18.636Z,98523.69
2019-02-27T22:42:48.436Z,98522.64
2019-02-27T22:45:20.372Z,98523.31
2019-02-27T22:47:49.600Z,98518.37
2019-02-27T22:50:19.102Z,98520.95
2019-02-27T22:52:47.392Z,98514.97
2019-02-27T22:55:15.658Z,98510.59
2019-02-27T22:57:43.928Z,98512.08
2019-02-27T23:00:19.121Z,98504.75
2019-02-27T23:02:47.375Z,98502.27
2019-02-27T23:05:15.661Z,98498.23
2019-02-27T23:07:43.920Z,98490.02
2019-02-27T23:10:12.202Z,98489.41
2019-02-27T23:12:40.511Z,98482.03
2019-02-27T23:15:08.768Z,98486.11
2019-02-27T23:17:37.038Z,98479.23
2019-02-27T23:20:05.871Z,98466.48
2019-02-27T23:22:34.158Z,98468.14
2019-02-27T23:25:02.434Z,98457.06
2019-02-27T23:27:30.724Z,98452.28
2019-02-27T23:29:59.105Z,98440.66
2019-02-27T23:32:28.630Z,98441.79
2019-02-27T23:34:57.408Z,98435.02
2019-02-27T23:37:29.390Z,98435.77
2019-02-27T23:39:55.668Z,98424.77
2019-02-27T23:42:23.953Z,98431.41
2019-02-27T23:44:53.305Z,98432.03
2019-02-27T23:47:21.567Z,98432.69
2019-02-27T23:49:49.836Z,98428.84
2019-02-27T23:52:19.212Z,98420.87
2019-02-27T23:54:48.087Z,98419.61
2019-02-27T23:57:16.343Z,98413.16
2019-02-27T23:59:44.624Z,98412.64
